Fisher Island, Florida
Current Conditions -  °F | °C
As of 1:53 PM on Friday 24 Oct 2014 (Local Time) from KMIA Reporting Station
Light Rain Light Rain  
Wind Chill: 75°   Ceiling: 3000
Heat Index: 75°   Visibility: 5mi
Dew Point: 72°   Wind: 14mph
Humidity: 90%   Direction: 40°NE
Pressure: 29.85"   Gusts: 21mph
Location:  25.784°N, 80.1359°W
Report Text: KMIA 241753Z 04012G18KT 5SM -RA BR FEW010 BKN030 OVC050 24/22 A2985 RMK AO2 RAB02E12B36 SLP107 P0000 60001 T02390222 10256 20239 58013
Loading
Personal Weather Stations






























Interactive Weather Map
Tropical Storm Tracking
New forecast layout! Learn more

10-Day Weather Forecast

Advertisements
Track Severe Weather on mobile